Terminal Aerodrome Forecast
Issued by NWS Blacksburg, VA

Home | Current Version | Previous Version | Text Only | Print | Product List | Glossary On
Versions: 1 2 3 4 5 6 7 8 9 10 11 12 13 14 15 16 17 18 19 20 21 22 23 24 25
000
FTUS41 KRNK 291729
TAFDAN
TAF
KDAN 291729Z 2918/3018 19006KT P6SM OVC250
     FM292000 19009KT P6SM BKN060
      TEMPO 2920/2922 -SHRA
     FM292300 24007KT P6SM BKN060
     FM300700 30010KT P6SM SKC
     FM301400 30015G25KT P6SM SKC=

USA.gov is the U.S. government's official web portal to all federal, state and local government web resources and services.